Armington, Montana
Current Conditions -  °F | °C
As of 2:56 AM on Sunday 26 Oct 2014 (Local Time) from KGFA Reporting Station
Broken Clouds Broken Clouds  
Wind Chill: 55°   Ceiling: 18000
Heat Index: 55°   Visibility: 10mi
Dew Point: 36°   Wind: 18mph
Humidity: 48%   Direction: 230°SW
Pressure: 29.59"   Gusts: NA
Location:  47.3298°N, 110.893°W
Report Text: KGFA 260856Z AUTO 23016KT 10SM BKN180 13/02 A2959 RMK AO2 SLP021 T01290021 57013
Loading
Personal Weather Stations






























Interactive Weather Map New forecast layout! Learn more

10-Day Weather Forecast

Advertisements
Track Severe Weather on mobile